Heathrow, Florida
Current Conditions -  °F | °C
As of 5:53 AM on Wednesday 26 Nov 2014 (Local Time) from KSFB Reporting Station
Overcast Overcast  
Wind Chill: 17°   Ceiling: 500
Heat Index: 17°   Visibility: 10mi
Dew Point: 16°   Wind: 17mph
Humidity: 90%   Direction: 300°WNW
Pressure: 29.94"   Gusts: 30mph
Location:  28.7595°N, 81.3431°W
Report Text: KSFB 261053Z AUTO 30015G26KT 10SM BKN005 OVC010 17/16 A2994 RMK AO2 PK WND 30026/1046 WSHFT 1031 RAB0955E52 CIG 004V009 SLP136 P0005 T01720156 $
Loading
Personal Weather Stations






























Interactive Weather Map New forecast layout! Learn more

10-Day Weather Forecast

Advertisements
Track Severe Weather on mobile